createdAt,value
2018-12-31T00:00:45.076Z,-4.00
2018-12-31T00:03:14.033Z,-4.00
2018-12-31T00:05:42.799Z,-4.00
2018-12-31T00:08:11.440Z,-4.00
2018-12-31T00:10:40.099Z,-4.10
2018-12-31T00:13:08.743Z,-4.00
2018-12-31T00:15:37.791Z,-4.10
2018-12-31T00:18:06.442Z,-4.10
2018-12-31T00:20:35.092Z,-4.10
2018-12-31T00:23:03.785Z,-4.10
2018-12-31T00:25:32.436Z,-4.10
2018-12-31T00:28:01.506Z,-4.10
2018-12-31T00:30:30.184Z,-4.00
2018-12-31T00:32:58.836Z,-4.00
2018-12-31T00:35:27.495Z,-4.00
2018-12-31T00:37:56.135Z,-4.00
2018-12-31T00:40:25.284Z,-4.10
2018-12-31T00:42:59.050Z,-4.10
2018-12-31T00:45:24.303Z,-4.10
2018-12-31T00:47:52.926Z,-4.10
2018-12-31T00:50:21.580Z,-4.20
2018-12-31T00:52:50.824Z,-4.20
2018-12-31T00:55:19.541Z,-4.10
2018-12-31T00:57:48.186Z,-4.10
2018-12-31T01:00:16.933Z,-4.10
2018-12-31T01:02:45.654Z,-4.20
2018-12-31T01:05:14.373Z,-4.10
2018-12-31T01:07:43.040Z,-4.20
2018-12-31T01:10:11.692Z,-4.20
2018-12-31T01:12:41.330Z,-4.10
2018-12-31T01:15:10.181Z,-4.10
2018-12-31T01:17:39.214Z,-4.00
2018-12-31T01:20:07.851Z,-4.00
2018-12-31T01:22:36.506Z,-4.10
2018-12-31T01:25:05.179Z,-4.10
2018-12-31T01:27:33.820Z,-4.10
2018-12-31T01:30:02.743Z,-4.10
2018-12-31T01:32:31.408Z,-4.20
2018-12-31T01:35:02.436Z,-4.20
2018-12-31T01:37:31.083Z,-4.20
2018-12-31T01:39:59.733Z,-4.20
2018-12-31T01:42:28.423Z,-4.20
2018-12-31T01:44:57.084Z,-4.10
2018-12-31T01:47:25.732Z,-4.00
2018-12-31T01:49:54.419Z,-4.00
2018-12-31T01:52:23.090Z,-4.00
2018-12-31T01:54:52.251Z,-4.00
2018-12-31T01:57:20.895Z,-4.00
2018-12-31T01:59:49.543Z,-4.10
2018-12-31T02:02:18.222Z,-4.10
2018-12-31T02:04:46.864Z,-4.10
2018-12-31T02:07:15.796Z,-4.10
2018-12-31T02:09:44.438Z,-4.10
2018-12-31T02:12:13.106Z,-4.10
2018-12-31T02:14:41.748Z,-4.10
2018-12-31T02:17:10.407Z,-4.10
2018-12-31T02:19:39.060Z,-4.20
2018-12-31T02:22:07.739Z,-4.20
2018-12-31T02:24:37.708Z,-4.10
2018-12-31T02:27:06.336Z,-4.10
2018-12-31T02:29:35.020Z,-4.10
2018-12-31T02:32:03.697Z,-4.10
2018-12-31T02:34:33.927Z,-4.10
2018-12-31T02:37:02.592Z,-4.00
2018-12-31T02:39:31.234Z,-4.10
2018-12-31T02:42:02.821Z,-4.20
2018-12-31T02:44:31.502Z,-4.20
2018-12-31T02:47:00.119Z,-4.10
2018-12-31T02:49:28.768Z,-4.20
2018-12-31T02:51:57.435Z,-4.20
2018-12-31T02:54:26.118Z,-4.20
2018-12-31T02:56:54.772Z,-4.20
2018-12-31T02:59:23.716Z,-4.10
2018-12-31T03:01:52.365Z,-4.10
2018-12-31T03:04:21.029Z,-4.10
2018-12-31T03:06:49.699Z,-4.10
2018-12-31T03:09:18.380Z,-4.10
2018-12-31T03:11:47.023Z,-4.00
2018-12-31T03:14:15.688Z,-4.10
2018-12-31T03:16:44.654Z,-4.10
2018-12-31T03:19:13.310Z,-4.00
2018-12-31T03:21:41.961Z,-4.00
2018-12-31T03:24:10.636Z,-4.00
2018-12-31T03:26:39.294Z,-4.00
2018-12-31T03:29:07.972Z,-4.10
2018-12-31T03:31:36.653Z,-4.00
2018-12-31T03:34:05.364Z,-4.00
2018-12-31T03:36:34.011Z,-4.00
2018-12-31T03:39:02.662Z,-4.00
2018-12-31T03:41:31.412Z,-4.00
2018-12-31T03:44:00.072Z,-4.10
2018-12-31T03:46:28.753Z,-4.00
2018-12-31T03:48:57.407Z,-4.00
2018-12-31T03:51:26.112Z,-4.00
2018-12-31T03:53:54.762Z,-4.00
2018-12-31T03:56:23.398Z,-3.90
2018-12-31T03:58:52.068Z,-3.90
2018-12-31T04:01:20.724Z,-3.90
2018-12-31T04:03:49.404Z,-4.00
2018-12-31T04:06:18.047Z,-4.00
2018-12-31T04:08:46.739Z,-4.00
2018-12-31T04:11:15.391Z,-4.00
2018-12-31T04:13:44.030Z,-4.00
2018-12-31T04:16:12.667Z,-4.00
2018-12-31T04:18:41.328Z,-4.00
2018-12-31T04:21:09.998Z,-4.00
2018-12-31T04:23:38.639Z,-4.00
2018-12-31T04:26:07.278Z,-4.00
2018-12-31T04:28:35.942Z,-4.00
2018-12-31T04:31:04.605Z,-4.10
2018-12-31T04:33:33.337Z,-4.10
2018-12-31T04:36:02.065Z,-4.10
2018-12-31T04:38:30.751Z,-4.10
2018-12-31T04:40:59.408Z,-4.00
2018-12-31T04:43:28.047Z,-4.00
2018-12-31T04:45:57.084Z,-4.10
2018-12-31T04:48:25.733Z,-4.00
2018-12-31T04:50:54.374Z,-4.10
2018-12-31T04:53:23.058Z,-4.10
2018-12-31T04:55:51.705Z,-4.20
2018-12-31T04:58:23.263Z,-4.20
2018-12-31T05:00:50.730Z,-4.20
2018-12-31T05:03:19.482Z,-4.10
2018-12-31T05:05:48.146Z,-4.10
2018-12-31T05:08:16.802Z,-4.20
2018-12-31T05:10:45.488Z,-4.20
2018-12-31T05:13:14.131Z,-4.20
2018-12-31T05:15:42.792Z,-4.20
2018-12-31T05:18:11.438Z,-4.20
2018-12-31T05:20:40.111Z,-4.20
2018-12-31T05:23:08.754Z,-4.20
2018-12-31T05:25:37.434Z,-4.30
2018-12-31T05:28:06.014Z,-4.20
2018-12-31T05:30:34.673Z,-4.20
2018-12-31T05:33:03.321Z,-4.10
2018-12-31T05:35:31.967Z,-4.10
2018-12-31T05:38:01.905Z,-4.20
2018-12-31T05:40:30.561Z,-4.20
2018-12-31T05:42:59.210Z,-4.20
2018-12-31T05:45:27.906Z,-4.20
2018-12-31T05:47:56.568Z,-4.20
2018-12-31T05:50:25.274Z,-4.20
2018-12-31T05:52:53.873Z,-4.20
2018-12-31T05:55:23.002Z,-4.10
2018-12-31T05:57:51.804Z,-4.10
2018-12-31T06:00:20.460Z,-4.20
2018-12-31T06:02:49.420Z,-4.20
2018-12-31T06:05:18.069Z,-4.10
2018-12-31T06:07:46.723Z,-4.20
2018-12-31T06:10:15.402Z,-4.10
2018-12-31T06:12:44.050Z,-4.10
2018-12-31T06:15:12.729Z,-4.20
2018-12-31T06:17:41.376Z,-4.20
2018-12-31T06:20:10.035Z,-4.20
2018-12-31T06:22:38.702Z,-4.20
2018-12-31T06:25:07.353Z,-4.20
2018-12-31T06:27:36.015Z,-4.10
2018-12-31T06:30:06.605Z,-4.10
2018-12-31T06:32:35.282Z,-4.10
2018-12-31T06:35:04.003Z,-4.10
2018-12-31T06:37:32.748Z,-4.10
2018-12-31T06:40:01.421Z,-4.00
2018-12-31T06:42:30.077Z,-3.90
2018-12-31T06:44:58.719Z,-4.00
2018-12-31T06:47:27.867Z,-4.00
2018-12-31T06:49:56.528Z,-4.00
2018-12-31T06:52:25.198Z,-3.90
2018-12-31T06:54:53.942Z,-3.90
2018-12-31T06:57:22.656Z,-3.90
2018-12-31T06:59:51.344Z,-3.80
2018-12-31T07:02:20.006Z,-3.90
2018-12-31T07:04:48.654Z,-3.90
2018-12-31T07:07:17.366Z,-3.90
2018-12-31T07:09:46.009Z,-3.90
2018-12-31T07:12:14.869Z,-3.80
2018-12-31T07:14:43.530Z,-3.90
2018-12-31T07:17:12.193Z,-3.90
2018-12-31T07:19:40.852Z,-3.90
2018-12-31T07:22:09.573Z,-3.80
2018-12-31T07:24:38.236Z,-3.80
2018-12-31T07:27:06.959Z,-3.80
2018-12-31T07:29:35.619Z,-3.80
2018-12-31T07:32:04.776Z,-3.70
2018-12-31T07:34:33.474Z,-3.70
2018-12-31T07:37:02.144Z,-3.80
2018-12-31T07:39:30.852Z,-3.70
2018-12-31T07:41:59.554Z,-3.70
2018-12-31T07:44:28.207Z,-3.70
2018-12-31T07:46:56.980Z,-3.70
2018-12-31T07:49:25.660Z,-3.70
2018-12-31T07:51:54.292Z,-3.60
2018-12-31T07:54:22.985Z,-3.80
2018-12-31T07:56:51.643Z,-3.80
2018-12-31T07:59:20.312Z,-3.70
2018-12-31T08:01:48.956Z,-3.70
2018-12-31T08:04:17.589Z,-3.70
2018-12-31T08:06:46.287Z,-3.70
2018-12-31T08:09:14.979Z,-3.70
2018-12-31T08:11:43.667Z,-3.70
2018-12-31T08:14:12.385Z,-3.70
2018-12-31T08:16:42.758Z,-3.70
2018-12-31T08:19:11.861Z,-3.60
2018-12-31T08:21:41.256Z,-3.50
2018-12-31T08:24:09.925Z,-3.50
2018-12-31T08:26:38.583Z,-3.50
2018-12-31T08:29:07.524Z,-3.50
2018-12-31T08:31:37.533Z,-3.50
2018-12-31T08:34:06.182Z,-3.40
2018-12-31T08:36:34.893Z,-3.30
2018-12-31T08:39:04.358Z,-3.30
2018-12-31T08:41:33.020Z,-3.40
2018-12-31T08:44:02.784Z,-3.50
2018-12-31T08:46:31.492Z,-3.60
2018-12-31T08:49:00.162Z,-3.60
2018-12-31T08:51:28.857Z,-3.60
2018-12-31T08:53:57.511Z,-3.70
2018-12-31T08:56:26.205Z,-3.60
2018-12-31T08:58:54.868Z,-3.50
2018-12-31T09:01:23.561Z,-3.40
2018-12-31T09:03:52.488Z,-3.30
2018-12-31T09:06:21.201Z,-3.30
2018-12-31T09:08:49.860Z,-3.20
2018-12-31T09:11:18.570Z,-3.10
2018-12-31T09:13:47.208Z,-3.10
2018-12-31T09:16:15.914Z,-3.20
2018-12-31T09:18:44.632Z,-3.20
2018-12-31T09:21:13.317Z,-3.20
2018-12-31T09:23:43.534Z,-3.10
2018-12-31T09:26:12.518Z,-3.10
2018-12-31T09:28:41.154Z,-3.20
2018-12-31T09:31:09.804Z,-3.10
2018-12-31T09:33:38.868Z,-3.10
2018-12-31T09:36:07.539Z,-3.20
2018-12-31T09:38:36.233Z,-3.20
2018-12-31T09:41:05.188Z,-3.20
2018-12-31T09:43:33.908Z,-3.30
2018-12-31T09:46:02.574Z,-3.20
2018-12-31T09:48:31.304Z,-3.30
2018-12-31T09:50:59.950Z,-3.30
2018-12-31T09:53:28.642Z,-3.30
2018-12-31T09:55:57.333Z,-3.20
2018-12-31T09:58:26.011Z,-3.20
2018-12-31T10:00:54.713Z,-3.10
2018-12-31T10:03:23.425Z,-3.20
2018-12-31T10:05:52.042Z,-3.20
2018-12-31T10:08:20.728Z,-3.20
2018-12-31T10:10:49.694Z,-3.20
2018-12-31T10:13:18.351Z,-3.10
2018-12-31T10:15:48.590Z,-3.20
2018-12-31T10:18:17.276Z,-3.20
2018-12-31T10:20:45.927Z,-3.20
2018-12-31T10:23:14.622Z,-3.20
2018-12-31T10:25:43.686Z,-3.10
2018-12-31T10:28:12.336Z,-3.00
2018-12-31T10:30:40.989Z,-3.00
2018-12-31T10:33:09.840Z,-3.00
2018-12-31T10:35:38.511Z,-2.90
2018-12-31T10:38:07.158Z,-2.70
2018-12-31T10:40:35.870Z,-2.70
2018-12-31T10:43:04.525Z,-2.70
2018-12-31T10:45:33.212Z,-2.80
2018-12-31T10:48:02.215Z,-2.80
2018-12-31T10:50:35.181Z,-2.80
2018-12-31T10:53:03.851Z,-3.00
2018-12-31T10:55:32.500Z,-3.00
2018-12-31T10:58:01.161Z,-3.00
2018-12-31T11:00:29.840Z,-2.90
2018-12-31T11:02:58.513Z,-3.00
2018-12-31T11:05:27.192Z,-3.00
2018-12-31T11:07:55.839Z,-3.00
2018-12-31T11:10:24.531Z,-2.80
2018-12-31T11:12:53.177Z,-2.90
2018-12-31T11:15:25.366Z,-2.90
2018-12-31T11:17:54.045Z,-2.90
2018-12-31T11:20:22.686Z,-2.80
2018-12-31T11:22:51.352Z,-2.80
2018-12-31T11:25:20.180Z,-2.70
2018-12-31T11:27:48.747Z,-2.70
2018-12-31T11:30:19.166Z,-2.60
2018-12-31T11:32:47.844Z,-2.60
2018-12-31T11:35:16.485Z,-2.60
2018-12-31T11:37:45.271Z,-2.60
2018-12-31T11:40:13.948Z,-2.60
2018-12-31T11:42:42.918Z,-2.60
2018-12-31T11:45:11.612Z,-2.70
2018-12-31T11:47:40.237Z,-2.80
2018-12-31T11:50:08.881Z,-2.70
2018-12-31T11:52:37.605Z,-2.80
2018-12-31T11:55:06.335Z,-2.70
2018-12-31T11:57:35.961Z,-2.80
2018-12-31T12:00:06.028Z,-2.90
2018-12-31T12:02:34.685Z,-2.80
2018-12-31T12:05:03.365Z,-2.70
2018-12-31T12:07:32.012Z,-2.60
2018-12-31T12:10:00.684Z,-2.70
2018-12-31T12:12:30.131Z,-2.80
2018-12-31T12:14:58.808Z,-2.70
2018-12-31T12:17:27.496Z,-2.70
2018-12-31T12:19:56.154Z,-2.60
2018-12-31T12:22:24.863Z,-2.50
2018-12-31T12:24:55.442Z,-2.50
2018-12-31T12:27:24.093Z,-2.60
2018-12-31T12:29:52.810Z,-2.60
2018-12-31T12:32:21.466Z,-2.50
2018-12-31T12:34:51.693Z,-2.50
2018-12-31T12:37:20.284Z,-2.50
2018-12-31T12:39:49.133Z,-2.50
2018-12-31T12:42:17.780Z,-2.50
2018-12-31T12:44:46.430Z,-2.50
2018-12-31T12:47:16.159Z,-2.50
2018-12-31T12:49:44.834Z,-2.40
2018-12-31T12:52:13.482Z,-2.40
2018-12-31T12:54:42.140Z,-2.40
2018-12-31T12:57:10.850Z,-2.50
2018-12-31T12:59:39.481Z,-2.50
2018-12-31T13:02:08.122Z,-2.50
2018-12-31T13:04:36.836Z,-2.50
2018-12-31T13:07:05.506Z,-2.50
2018-12-31T13:09:34.179Z,-2.60
2018-12-31T13:12:02.966Z,-2.60
2018-12-31T13:14:31.639Z,-2.50
2018-12-31T13:17:00.275Z,-2.50
2018-12-31T13:19:29.010Z,-2.60
2018-12-31T13:21:57.684Z,-2.60
2018-12-31T13:24:26.336Z,-2.60
2018-12-31T13:26:55.040Z,-2.50
2018-12-31T13:29:23.696Z,-2.60
2018-12-31T13:31:52.352Z,-2.60
2018-12-31T13:34:21.007Z,-2.60
2018-12-31T13:36:49.660Z,-2.60
2018-12-31T13:39:18.343Z,-2.60
2018-12-31T13:41:46.995Z,-2.60
2018-12-31T13:44:15.749Z,-2.50
2018-12-31T13:46:44.400Z,-2.60
2018-12-31T13:49:13.171Z,-2.70
2018-12-31T13:51:41.824Z,-2.70
2018-12-31T13:54:10.581Z,-2.60
2018-12-31T13:56:39.267Z,-2.60
2018-12-31T13:59:07.925Z,-2.70
2018-12-31T14:01:36.571Z,-2.70
2018-12-31T14:04:05.315Z,-2.80
2018-12-31T14:06:33.983Z,-2.80
2018-12-31T14:09:02.706Z,-2.90
2018-12-31T14:11:31.470Z,-2.90
2018-12-31T14:14:00.177Z,-2.90
2018-12-31T14:16:28.858Z,-2.90
2018-12-31T14:18:59.530Z,-2.90
2018-12-31T14:21:28.261Z,-2.80
2018-12-31T14:23:56.887Z,-2.80
2018-12-31T14:26:49.218Z,-2.90
2018-12-31T14:29:17.890Z,-2.90
2018-12-31T14:31:46.707Z,-2.90
2018-12-31T14:34:15.521Z,-2.90
2018-12-31T14:36:46.257Z,-2.80
2018-12-31T14:39:20.909Z,-2.90
2018-12-31T14:41:49.555Z,-2.90
2018-12-31T14:44:18.308Z,-2.90
2018-12-31T14:46:46.967Z,-2.90
2018-12-31T14:49:16.726Z,-3.00
2018-12-31T14:51:45.373Z,-3.00
2018-12-31T14:54:14.139Z,-3.00
2018-12-31T14:56:42.922Z,-3.10
2018-12-31T14:59:11.584Z,-3.10
2018-12-31T15:01:40.277Z,-3.00
2018-12-31T15:04:11.684Z,-3.00
2018-12-31T15:06:40.370Z,-3.00
2018-12-31T15:09:09.097Z,-3.00
2018-12-31T15:11:37.761Z,-3.00
2018-12-31T15:14:06.656Z,-3.00
2018-12-31T15:16:35.278Z,-3.00
2018-12-31T15:19:03.965Z,-3.00
2018-12-31T15:21:32.650Z,-3.00
2018-12-31T15:24:01.341Z,-3.00
2018-12-31T15:26:30.139Z,-3.00
2018-12-31T15:28:58.808Z,-3.00
2018-12-31T15:31:27.557Z,-3.00
2018-12-31T15:33:58.947Z,-3.10
2018-12-31T15:36:27.724Z,-3.10
2018-12-31T15:38:56.394Z,-3.00
2018-12-31T15:41:25.107Z,-3.10
2018-12-31T15:43:53.779Z,-3.10
2018-12-31T15:46:22.478Z,-3.10
2018-12-31T15:48:51.156Z,-3.00
2018-12-31T15:51:19.864Z,-3.00
2018-12-31T15:53:48.513Z,-3.00
2018-12-31T15:56:17.679Z,-3.00
2018-12-31T15:58:46.325Z,-3.00
2018-12-31T16:01:14.976Z,-3.00
2018-12-31T16:03:43.950Z,-3.00
2018-12-31T16:06:12.607Z,-3.00
2018-12-31T16:08:41.253Z,-3.10
2018-12-31T16:11:10.025Z,-3.10
2018-12-31T16:13:38.695Z,-3.10
2018-12-31T16:16:07.714Z,-3.00
2018-12-31T16:18:36.331Z,-3.00
2018-12-31T16:21:05.906Z,-3.00
2018-12-31T16:23:34.607Z,-3.10
2018-12-31T16:26:03.363Z,-3.00
2018-12-31T16:28:34.190Z,-3.00
2018-12-31T16:31:02.873Z,-3.10
2018-12-31T16:33:31.516Z,-3.10
2018-12-31T16:36:00.209Z,-3.20
2018-12-31T16:38:28.912Z,-3.20
2018-12-31T16:40:58.254Z,-3.20
2018-12-31T16:43:26.950Z,-3.20
2018-12-31T16:45:55.583Z,-3.20
2018-12-31T16:48:24.265Z,-3.10
2018-12-31T16:50:52.900Z,-3.20
2018-12-31T16:53:21.753Z,-3.20
2018-12-31T16:56:03.019Z,-3.30
2018-12-31T16:58:31.639Z,-3.30
2018-12-31T17:01:00.750Z,-3.30
2018-12-31T17:03:29.517Z,-3.30
2018-12-31T17:06:07.306Z,-3.30
2018-12-31T17:08:36.093Z,-3.40
2018-12-31T17:11:08.602Z,-3.40
2018-12-31T17:13:37.282Z,-3.40
2018-12-31T17:16:06.875Z,-3.40
2018-12-31T17:18:35.625Z,-3.40
2018-12-31T17:21:05.859Z,-3.40
2018-12-31T17:23:34.704Z,-3.40
2018-12-31T17:26:04.038Z,-3.50
2018-12-31T17:28:32.910Z,-3.40
2018-12-31T17:31:01.571Z,-3.40
2018-12-31T17:33:30.310Z,-3.40
2018-12-31T17:35:59.663Z,-3.40
2018-12-31T17:38:28.396Z,-3.40
2018-12-31T17:40:59.609Z,-3.40
2018-12-31T17:43:28.285Z,-3.40
2018-12-31T17:45:57.035Z,-3.40
2018-12-31T17:48:27.898Z,-3.40
2018-12-31T17:50:56.608Z,-3.20
2018-12-31T17:53:27.044Z,-3.20
2018-12-31T17:55:55.698Z,-3.30
2018-12-31T17:58:24.372Z,-3.40
2018-12-31T18:00:53.048Z,-3.50
2018-12-31T18:03:21.713Z,-3.50
2018-12-31T18:05:50.674Z,-3.50
2018-12-31T18:08:22.309Z,-3.60
2018-12-31T18:10:50.972Z,-3.50
2018-12-31T18:13:20.074Z,-3.50
2018-12-31T18:15:49.806Z,-3.50
2018-12-31T18:18:18.572Z,-3.50
2018-12-31T18:20:47.755Z,-3.40
2018-12-31T18:23:16.546Z,-3.50
2018-12-31T18:25:45.242Z,-3.50
2018-12-31T18:28:13.867Z,-3.50
2018-12-31T18:30:42.754Z,-3.50
2018-12-31T18:33:13.200Z,-3.50
2018-12-31T18:35:41.886Z,-3.60
2018-12-31T18:38:10.578Z,-3.60
2018-12-31T18:40:40.808Z,-3.50
2018-12-31T18:43:09.998Z,-3.60
2018-12-31T18:45:38.652Z,-3.60
2018-12-31T18:48:07.321Z,-3.50
2018-12-31T18:50:36.135Z,-3.50
2018-12-31T18:53:05.780Z,-3.60
2018-12-31T18:55:34.970Z,-3.60
2018-12-31T18:58:03.711Z,-3.60
2018-12-31T19:00:32.383Z,-3.70
2018-12-31T19:03:01.050Z,-3.70
2018-12-31T19:05:29.732Z,-3.70
2018-12-31T19:07:58.886Z,-3.60
2018-12-31T19:10:27.558Z,-3.70
2018-12-31T19:12:56.600Z,-3.80
2018-12-31T19:15:26.255Z,-3.60
2018-12-31T19:17:54.921Z,-3.70
2018-12-31T19:20:23.587Z,-3.70
2018-12-31T19:22:52.256Z,-3.70
2018-12-31T19:25:22.154Z,-3.80
2018-12-31T19:27:50.823Z,-3.80
2018-12-31T19:30:19.543Z,-3.90
2018-12-31T19:32:48.213Z,-3.90
2018-12-31T19:35:16.890Z,-3.90
2018-12-31T19:37:45.543Z,-3.80
2018-12-31T19:40:14.169Z,-3.70
2018-12-31T19:42:43.301Z,-3.80
2018-12-31T19:45:11.986Z,-3.70
2018-12-31T19:47:44.113Z,-3.80
2018-12-31T19:50:12.865Z,-3.80
2018-12-31T19:52:43.280Z,-3.80
2018-12-31T19:55:12.464Z,-3.80
2018-12-31T19:57:41.173Z,-3.90
2018-12-31T20:00:10.006Z,-3.90
2018-12-31T20:02:38.697Z,-3.90
2018-12-31T20:05:07.543Z,-3.90
2018-12-31T20:07:36.274Z,-3.10
2018-12-31T20:10:06.127Z,-3.40
2018-12-31T20:12:40.887Z,-3.30
2018-12-31T20:15:11.237Z,-3.60
2018-12-31T20:17:39.942Z,-3.70
2018-12-31T20:20:08.865Z,-3.80
2018-12-31T20:22:39.911Z,-3.90
2018-12-31T20:25:08.576Z,-3.90
2018-12-31T20:27:37.254Z,-3.90
2018-12-31T20:30:06.190Z,-3.90
2018-12-31T20:32:34.886Z,-3.90
2018-12-31T20:35:04.573Z,-3.90
2018-12-31T20:37:36.145Z,-3.80
2018-12-31T20:40:06.485Z,-3.90
2018-12-31T20:42:35.263Z,-3.90
2018-12-31T20:45:04.123Z,-3.90
2018-12-31T20:47:32.783Z,-3.90
2018-12-31T20:50:01.582Z,-3.90
2018-12-31T20:52:30.350Z,-3.90
2018-12-31T20:54:59.249Z,-3.90
2018-12-31T20:57:29.840Z,-3.80
2018-12-31T20:59:58.547Z,-3.90
2018-12-31T21:02:27.226Z,-3.80
2018-12-31T21:04:55.940Z,-3.80
2018-12-31T21:07:24.743Z,-3.80
2018-12-31T21:09:56.322Z,-3.70
2018-12-31T21:12:25.083Z,-3.70
2018-12-31T21:14:56.039Z,-3.70
2018-12-31T21:17:27.896Z,-3.70
2018-12-31T21:19:57.239Z,-3.80
2018-12-31T21:22:39.073Z,-3.70
2018-12-31T21:25:10.610Z,-3.70
2018-12-31T21:27:39.840Z,-3.60
2018-12-31T21:30:10.587Z,-3.60
2018-12-31T21:32:42.051Z,-3.60
2018-12-31T21:35:10.709Z,-3.70
2018-12-31T21:37:39.982Z,-3.60
2018-12-31T21:40:09.239Z,-3.70
2018-12-31T21:42:37.879Z,-3.70
2018-12-31T21:45:06.553Z,-3.80
2018-12-31T21:47:35.212Z,-3.70
2018-12-31T21:50:04.613Z,-3.70
2018-12-31T21:52:33.331Z,-3.60
2018-12-31T21:55:01.996Z,-3.60
2018-12-31T21:57:30.708Z,-3.70
2018-12-31T21:59:59.388Z,-3.70
2018-12-31T22:02:28.369Z,-3.60
2018-12-31T22:04:57.397Z,-3.70
2018-12-31T22:07:26.109Z,-3.70
2018-12-31T22:09:54.793Z,-3.80
2018-12-31T22:12:23.453Z,-3.80
2018-12-31T22:14:52.299Z,-3.80
2018-12-31T22:17:21.413Z,-3.80
2018-12-31T22:19:50.122Z,-3.70
2018-12-31T22:22:21.245Z,-3.70
2018-12-31T22:24:49.962Z,-3.60
2018-12-31T22:27:18.791Z,-3.60
2018-12-31T22:29:48.264Z,-3.70
2018-12-31T22:32:17.019Z,-3.70
2018-12-31T22:34:45.658Z,-3.70
2018-12-31T22:37:14.337Z,-3.70
2018-12-31T22:39:43.722Z,-3.60
2018-12-31T22:42:12.409Z,-3.70
2018-12-31T22:44:41.077Z,-3.70
2018-12-31T22:47:09.703Z,-3.70
2018-12-31T22:49:38.391Z,-3.70
2018-12-31T22:52:07.337Z,-3.70
2018-12-31T22:54:36.717Z,-3.70
2018-12-31T22:57:05.469Z,-3.70
2018-12-31T22:59:34.207Z,-3.70
2018-12-31T23:02:04.006Z,-3.80
2018-12-31T23:04:32.670Z,-3.80
2018-12-31T23:07:02.332Z,-3.80
2018-12-31T23:10:04.076Z,-3.80
2018-12-31T23:12:56.078Z,-3.80
2018-12-31T23:18:30.504Z,-3.70
2018-12-31T23:21:00.885Z,-3.80
2018-12-31T23:23:29.579Z,-3.80
2018-12-31T23:25:58.678Z,-3.80
2018-12-31T23:28:27.329Z,-3.80
2018-12-31T23:30:56.547Z,-3.80
2018-12-31T23:33:25.245Z,-3.80
2018-12-31T23:35:53.913Z,-3.80
2018-12-31T23:38:23.971Z,-3.80
2018-12-31T23:40:52.682Z,-3.90
2018-12-31T23:43:21.768Z,-3.90
2018-12-31T23:45:50.818Z,-3.90
2018-12-31T23:48:19.677Z,-3.80
2018-12-31T23:50:48.367Z,-3.80
2018-12-31T23:53:17.016Z,-3.80
2018-12-31T23:55:46.105Z,-3.80
2018-12-31T23:58:14.818Z,-3.90
